Time;durP1;ratioP1;P1;durP2;ratioP2;P2;SDS_P1;SDS_P2;PMS_P1;PMS_P2;Temp;Humidity;BMP_temperature;BMP_pressure;BME280_temperature;BME280_humidity;BME280_pressure;Samples;Min_cycle;Max_cycle;Signal;HPM_P1;HPM_P2
2023/03/09 00:01:35;;;;;;;;;2.25;1.25;;;;;;;;5083630;27;61636;-85
2023/03/09 00:04:00;;;;;;;;;2.50;0.00;;;;;;;;5083529;27;61865;-83
2023/03/09 00:06:26;;;;;;;;;0.75;0.75;;;;;;;;5065494;28;62171;-83
2023/03/09 00:08:51;;;;;;;;;1.50;0.75;;;;;;;;5064640;28;63812;-84
2023/03/09 00:11:17;;;;;;;;;4.00;1.75;;;;;;;;5065500;28;61798;-84
2023/03/09 00:13:43;;;;;;;;;4.00;2.00;;;;;;;;5065249;28;61995;-84
2023/03/09 00:16:14;;;;;;;;;1.00;1.00;;;;;;;;5083625;27;61944;-84
2023/03/09 00:18:40;;;;;;;;;1.50;1.25;;;;;;;;5063848;28;63305;-84
2023/03/09 00:21:05;;;;;;;;;1.00;1.00;;;;;;;;5083603;28;61740;-83
2023/03/09 00:23:31;;;;;;;;;0.75;0.75;;;;;;;;5083471;27;62329;-84
2023/03/09 00:26:02;;;;;;;;;1.00;0.00;;;;;;;;5083425;27;61710;-85
2023/03/09 00:28:27;;;;;;;;;2.00;1.00;;;;;;;;5083174;27;61717;-84
2023/03/09 00:30:52;;;;;;;;;2.00;0.50;;;;;;;;5064539;27;62393;-84
2023/03/09 00:33:17;;;;;;;;;0.00;0.00;;;;;;;;5064399;28;61959;-83
2023/03/09 00:35:43;;;;;;;;;0.00;0.00;;;;;;;;5065123;28;61883;-84
2023/03/09 00:38:08;;;;;;;;;1.75;0.00;;;;;;;;5064311;27;64709;-84
2023/03/09 00:40:33;;;;;;;;;0.25;0.25;;;;;;;;5082992;28;61945;-84
2023/03/09 00:42:59;;;;;;;;;1.00;1.00;;;;;;;;5064826;28;62165;-84
2023/03/09 00:45:24;;;;;;;;;4.25;0.75;;;;;;;;5083251;27;61946;-84
2023/03/09 00:47:49;;;;;;;;;0.00;0.00;;;;;;;;5063814;28;64767;-84
2023/03/09 00:50:15;;;;;;;;;0.00;0.00;;;;;;;;5064938;28;61922;-84
2023/03/09 00:52:40;;;;;;;;;0.50;0.50;;;;;;;;5082820;27;61907;-85
2023/03/09 00:55:06;;;;;;;;;0.75;0.00;;;;;;;;5065124;28;61758;-84
2023/03/09 00:57:31;;;;;;;;;0.75;0.00;;;;;;;;5082401;27;61840;-84
2023/03/09 00:59:56;;;;;;;;;1.75;0.25;;;;;;;;5064324;27;61774;-84
2023/03/09 01:02:22;;;;;;;;;0.75;0.75;;;;;;;;5064205;28;61891;-84
2023/03/09 01:04:48;;;;;;;;;3.00;0.00;;;;;;;;5082713;27;62134;-84
2023/03/09 01:07:13;;;;;;;;;1.00;1.00;;;;;;;;5082206;28;61717;-84
2023/03/09 01:09:39;;;;;;;;;1.00;1.00;;;;;;;;5064659;28;61910;-84
2023/03/09 01:12:04;;;;;;;;;2.00;0.50;;;;;;;;5064498;28;61737;-84
2023/03/09 01:14:30;;;;;;;;;1.00;1.00;;;;;;;;5064650;28;61882;-83
2023/03/09 01:16:55;;;;;;;;;1.25;0.00;;;;;;;;5063398;28;63625;-83
2023/03/09 01:19:21;;;;;;;;;0.00;0.00;;;;;;;;5064248;28;61802;-84
2023/03/09 01:21:46;;;;;;;;;1.00;1.00;;;;;;;;5064482;28;61861;-83
2023/03/09 01:24:11;;;;;;;;;0.00;0.00;;;;;;;;5064641;27;61747;-84
2023/03/09 01:26:36;;;;;;;;;3.00;0.00;;;;;;;;5082082;28;62953;-83
2023/03/09 01:29:02;;;;;;;;;0.00;0.00;;;;;;;;5082139;28;61752;-82
2023/03/09 01:31:27;;;;;;;;;0.50;0.00;;;;;;;;5082420;28;61754;-84
2023/03/09 01:33:52;;;;;;;;;2.25;0.00;;;;;;;;5082063;28;61921;-83
2023/03/09 01:36:18;;;;;;;;;0.50;0.50;;;;;;;;5063727;28;65015;-84
2023/03/09 01:38:44;;;;;;;;;1.00;1.00;;;;;;;;5082566;28;61916;-84
2023/03/09 01:41:10;;;;;;;;;1.00;0.00;;;;;;;;5064043;28;61759;-84
2023/03/09 01:43:39;;;;;;;;;3.50;0.00;;;;;;;;5063937;28;61817;-83
2023/03/09 01:46:37;;;;;;;;;0.50;0.50;;;;;;;;5081506;27;61952;-84
2023/03/09 01:49:05;;;;;;;;;0.75;0.75;;;;;;;;4999122;28;61930;-84
2023/03/09 01:51:35;;;;;;;;;4.00;0.25;;;;;;;;4982970;28;61931;-83
2023/03/09 01:54:02;;;;;;;;;1.00;0.00;;;;;;;;4983304;28;61777;-84
2023/03/09 01:56:28;;;;;;;;;0.00;0.00;;;;;;;;4999007;28;63378;-83
2023/03/09 01:58:54;;;;;;;;;6.00;0.00;;;;;;;;4998990;28;62063;-83
2023/03/09 02:01:20;;;;;;;;;3.00;0.00;;;;;;;;4999439;28;61995;-84
2023/03/09 02:03:47;;;;;;;;;4.00;0.00;;;;;;;;4999350;28;62226;-83
2023/03/09 02:06:14;;;;;;;;;1.50;0.00;;;;;;;;4982175;28;63813;-84
2023/03/09 02:08:43;;;;;;;;;2.50;0.00;;;;;;;;4983010;28;61924;-82
2023/03/09 02:11:10;;;;;;;;;0.00;0.00;;;;;;;;4982915;28;61899;-84
2023/03/09 02:13:42;;;;;;;;;0.00;0.00;;;;;;;;4999583;28;61969;-83
2023/03/09 02:16:07;;;;;;;;;2.25;1.00;;;;;;;;4982862;28;64076;-84
2023/03/09 02:18:32;;;;;;;;;2.00;1.00;;;;;;;;4985940;28;62010;-84
2023/03/09 02:21:01;;;;;;;;;3.75;1.00;;;;;;;;5002640;28;62106;-83
2023/03/09 02:23:32;;;;;;;;;1.00;1.00;;;;;;;;4986432;28;62080;-84
2023/03/09 02:26:13;;;;;;;;;0.75;0.00;;;;;;;;5084688;27;62803;-84
2023/03/09 02:28:38;;;;;;;;;0.00;0.00;;;;;;;;5084815;27;61981;-84
2023/03/09 02:31:04;;;;;;;;;2.00;0.00;;;;;;;;5085312;27;61633;-84
2023/03/09 02:33:30;;;;;;;;;2.75;1.00;;;;;;;;5066554;28;62101;-84
2023/03/09 02:35:56;;;;;;;;;0.00;0.00;;;;;;;;5084725;28;62094;-84
2023/03/09 02:38:22;;;;;;;;;2.25;0.25;;;;;;;;5066660;28;61897;-83
2023/03/09 02:40:48;;;;;;;;;3.50;1.50;;;;;;;;5066639;28;61948;-83
2023/03/09 02:43:15;;;;;;;;;2.00;1.50;;;;;;;;5066713;28;62101;-83
2023/03/09 02:45:40;;;;;;;;;3.00;1.00;;;;;;;;5065988;28;64067;-83
2023/03/09 02:48:05;;;;;;;;;1.00;1.00;;;;;;;;5066173;27;62126;-83
2023/03/09 02:50:31;;;;;;;;;0.00;0.00;;;;;;;;5066974;28;62007;-83
2023/03/09 02:52:56;;;;;;;;;3.25;0.25;;;;;;;;5066962;28;62136;-84
2023/03/09 02:55:21;;;;;;;;;3.50;3.00;;;;;;;;5065772;27;63831;-84
2023/03/09 02:57:47;;;;;;;;;1.00;0.00;;;;;;;;5084613;27;61788;-84
2023/03/09 03:00:13;;;;;;;;;1.50;1.25;;;;;;;;5066136;27;61849;-83
2023/03/09 03:02:38;;;;;;;;;2.00;1.50;;;;;;;;5066465;28;62309;-84
2023/03/09 03:05:04;;;;;;;;;2.75;1.50;;;;;;;;5084355;27;61918;-84
2023/03/09 03:07:29;;;;;;;;;3.00;1.00;;;;;;;;5066347;27;62479;-84
2023/03/09 03:09:55;;;;;;;;;1.50;1.00;;;;;;;;5066563;28;62069;-84
2023/03/09 03:12:20;;;;;;;;;1.00;0.00;;;;;;;;5084533;28;62319;-84
2023/03/09 03:14:45;;;;;;;;;7.50;3.75;;;;;;;;5084082;28;62034;-84
2023/03/09 03:17:10;;;;;;;;;1.75;1.75;;;;;;;;5065885;28;61916;-83
2023/03/09 03:19:36;;;;;;;;;7.00;0.00;;;;;;;;5066022;28;62148;-85
2023/03/09 03:22:02;;;;;;;;;3.50;1.75;;;;;;;;5084528;27;62259;-84
2023/03/09 03:24:28;;;;;;;;;2.50;0.25;;;;;;;;5065399;28;63630;-83
2023/03/09 03:26:53;;;;;;;;;7.75;1.00;;;;;;;;5084009;27;61745;-84
2023/03/09 03:29:18;;;;;;;;;2.00;1.00;;;;;;;;5084158;27;62103;-83
2023/03/09 03:31:43;;;;;;;;;2.50;2.00;;;;;;;;5066084;28;62365;-83
2023/03/09 03:34:09;;;;;;;;;1.75;1.75;;;;;;;;5065137;28;63923;-84
2023/03/09 03:36:34;;;;;;;;;0.00;0.00;;;;;;;;5084290;28;61942;-85
2023/03/09 03:38:59;;;;;;;;;1.50;1.00;;;;;;;;5065702;28;62912;-84
2023/03/09 03:41:24;;;;;;;;;1.75;0.75;;;;;;;;5084323;27;62164;-84
2023/03/09 03:43:50;;;;;;;;;3.00;2.00;;;;;;;;5065462;28;63514;-84
2023/03/09 03:46:15;;;;;;;;;3.25;2.00;;;;;;;;5083763;27;61777;-84
2023/03/09 03:48:42;;;;;;;;;2.75;1.00;;;;;;;;5083838;28;62038;-84
2023/03/09 03:51:08;;;;;;;;;2.50;1.50;;;;;;;;5066183;28;61843;-83
2023/03/09 03:53:33;;;;;;;;;5.00;2.00;;;;;;;;5083250;27;62049;-83
2023/03/09 03:55:58;;;;;;;;;8.00;0.75;;;;;;;;5083447;28;61869;-85
2023/03/09 03:58:23;;;;;;;;;6.75;1.00;;;;;;;;5084159;27;61781;-83
2023/03/09 04:00:49;;;;;;;;;3.50;1.00;;;;;;;;5065427;28;61637;-83
2023/03/09 04:03:14;;;;;;;;;0.25;0.25;;;;;;;;5064608;28;64995;-83
2023/03/09 04:05:40;;;;;;;;;1.50;1.25;;;;;;;;5083442;27;61891;-83
2023/03/09 04:08:06;;;;;;;;;4.75;1.00;;;;;;;;5065241;28;61785;-83
2023/03/09 04:10:31;;;;;;;;;3.75;1.00;;;;;;;;5065215;28;61858;-83
2023/03/09 04:12:57;;;;;;;;;3.50;1.50;;;;;;;;5064781;27;64024;-83
2023/03/09 04:15:22;;;;;;;;;0.00;0.00;;;;;;;;5065362;28;61842;-83
2023/03/09 04:17:47;;;;;;;;;5.25;0.00;;;;;;;;5083113;27;61942;-83
2023/03/09 04:20:13;;;;;;;;;2.00;1.00;;;;;;;;5065287;28;61746;-83
2023/03/09 04:22:38;;;;;;;;;0.25;0.25;;;;;;;;5064406;28;64881;-84
2023/03/09 04:25:04;;;;;;;;;3.00;1.75;;;;;;;;5065140;27;62140;-83
2023/03/09 04:27:29;;;;;;;;;2.50;1.00;;;;;;;;5064860;28;61856;-83
2023/03/09 04:29:54;;;;;;;;;1.00;1.00;;;;;;;;5083711;27;62179;-83
2023/03/09 04:32:19;;;;;;;;;3.25;0.50;;;;;;;;5064138;28;64029;-82
2023/03/09 04:34:45;;;;;;;;;3.00;1.00;;;;;;;;5064802;28;62033;-84
2023/03/09 04:37:12;;;;;;;;;0.00;0.00;;;;;;;;5083554;28;61777;-83
2023/03/09 04:39:38;;;;;;;;;2.25;1.50;;;;;;;;5063827;28;61918;-83
2023/03/09 04:42:03;;;;;;;;;6.50;1.50;;;;;;;;5064324;28;64632;-83
2023/03/09 04:44:28;;;;;;;;;2.75;1.25;;;;;;;;5064864;28;62273;-83
2023/03/09 04:46:53;;;;;;;;;4.50;1.00;;;;;;;;5064742;28;62131;-83
2023/03/09 04:49:19;;;;;;;;;2.00;2.00;;;;;;;;5064794;28;62006;-83
2023/03/09 04:51:44;;;;;;;;;1.00;1.00;;;;;;;;5064213;28;63670;-82
2023/03/09 04:54:09;;;;;;;;;1.25;1.25;;;;;;;;5064480;27;62002;-83
2023/03/09 04:56:34;;;;;;;;;3.50;1.00;;;;;;;;5064599;28;61961;-83
2023/03/09 04:59:00;;;;;;;;;0.00;0.00;;;;;;;;5064781;28;61998;-82
2023/03/09 05:01:25;;;;;;;;;2.25;1.00;;;;;;;;5063754;28;63698;-82
2023/03/09 05:03:50;;;;;;;;;4.00;1.00;;;;;;;;5064027;28;62141;-82
2023/03/09 05:06:20;;;;;;;;;2.00;0.00;;;;;;;;5064409;28;61825;-82
2023/03/09 05:08:47;;;;;;;;;4.25;0.25;;;;;;;;5064355;28;61930;-82
2023/03/09 05:11:12;;;;;;;;;2.25;1.00;;;;;;;;5064077;28;64565;-83
2023/03/09 05:13:37;;;;;;;;;4.25;1.25;;;;;;;;5064354;28;61832;-82
2023/03/09 05:16:07;;;;;;;;;0.00;0.00;;;;;;;;5064359;28;62005;-82
2023/03/09 05:18:33;;;;;;;;;2.75;1.00;;;;;;;;5083173;28;61753;-83
2023/03/09 05:20:58;;;;;;;;;3.75;1.50;;;;;;;;5064004;28;65114;-83
2023/03/09 05:23:23;;;;;;;;;1.00;1.00;;;;;;;;5082396;28;61787;-82
2023/03/09 05:25:56;;;;;;;;;6.25;1.25;;;;;;;;5082676;28;61892;-83
2023/03/09 05:28:24;;;;;;;;;2.00;2.00;;;;;;;;5064578;28;62530;-83
2023/03/09 05:30:50;;;;;;;;;1.50;1.50;;;;;;;;5081577;28;62194;-83
2023/03/09 05:33:15;;;;;;;;;7.00;1.00;;;;;;;;5063613;28;61939;-83
2023/03/09 05:35:40;;;;;;;;;2.00;2.00;;;;;;;;5063806;28;61954;-82
2023/03/09 05:38:06;;;;;;;;;2.50;2.25;;;;;;;;5064384;28;61752;-83
2023/03/09 05:40:31;;;;;;;;;1.25;0.25;;;;;;;;5063427;28;63725;-82
2023/03/09 05:42:56;;;;;;;;;1.50;1.00;;;;;;;;5064025;28;61948;-83
2023/03/09 05:45:21;;;;;;;;;4.00;0.00;;;;;;;;5063984;28;61954;-83
2023/03/09 05:47:47;;;;;;;;;2.00;1.00;;;;;;;;5082061;27;61920;-83
2023/03/09 05:50:12;;;;;;;;;3.50;1.00;;;;;;;;5063310;28;65059;-82
2023/03/09 05:52:37;;;;;;;;;2.00;1.00;;;;;;;;5085521;27;61652;-83
2023/03/09 05:55:03;;;;;;;;;2.00;0.25;;;;;;;;5085840;27;61928;-83
2023/03/09 05:57:28;;;;;;;;;0.00;0.00;;;;;;;;5067739;27;61809;-83
2023/03/09 05:59:53;;;;;;;;;2.00;0.00;;;;;;;;5066611;28;64678;-83
2023/03/09 06:02:18;;;;;;;;;0.75;0.75;;;;;;;;5085666;27;61740;-83
2023/03/09 06:04:48;;;;;;;;;0.50;0.50;;;;;;;;5066892;27;61823;-83
2023/03/09 06:07:13;;;;;;;;;0.00;0.00;;;;;;;;5069108;28;62059;-83
2023/03/09 06:09:38;;;;;;;;;2.75;1.00;;;;;;;;5067163;28;63512;-83
2023/03/09 06:12:04;;;;;;;;;5.50;1.00;;;;;;;;5066997;28;62003;-82
2023/03/09 06:14:29;;;;;;;;;5.00;2.00;;;;;;;;5067559;28;61820;-82
2023/03/09 06:16:54;;;;;;;;;2.75;0.25;;;;;;;;5085395;27;61761;-82
2023/03/09 06:19:20;;;;;;;;;0.25;0.25;;;;;;;;5084378;28;62927;-82
2023/03/09 06:21:45;;;;;;;;;1.00;1.00;;;;;;;;5069139;28;61729;-82
2023/03/09 06:24:10;;;;;;;;;0.50;0.50;;;;;;;;5067090;28;61805;-83
2023/03/09 06:26:36;;;;;;;;;1.00;1.00;;;;;;;;5067531;27;61845;-83
2023/03/09 06:29:01;;;;;;;;;1.75;1.00;;;;;;;;5084338;27;62082;-83
2023/03/09 06:31:26;;;;;;;;;2.00;1.00;;;;;;;;5066619;28;61874;-83
2023/03/09 06:33:52;;;;;;;;;4.75;0.25;;;;;;;;5066602;28;61890;-82
2023/03/09 06:36:17;;;;;;;;;1.00;1.00;;;;;;;;5065962;27;61881;-82
2023/03/09 06:38:44;;;;;;;;;1.00;1.00;;;;;;;;5083940;27;62220;-81
2023/03/09 06:41:09;;;;;;;;;1.00;1.00;;;;;;;;5046376;28;62160;-82
2023/03/09 06:43:34;;;;;;;;;3.00;1.00;;;;;;;;5065244;28;61756;-80
2023/03/09 06:46:00;;;;;;;;;2.00;1.25;;;;;;;;5048729;28;61834;-83
2023/03/09 06:48:25;;;;;;;;;2.50;2.50;;;;;;;;5083760;28;62643;-85
2023/03/09 06:50:51;;;;;;;;;2.75;1.50;;;;;;;;5066083;28;62121;-84
2023/03/09 06:53:16;;;;;;;;;2.75;1.00;;;;;;;;5062648;27;61976;-86
2023/03/09 06:55:42;;;;;;;;;2.50;1.50;;;;;;;;5066244;27;62029;-82
2023/03/09 06:58:08;;;;;;;;;3.75;0.50;;;;;;;;5061360;27;65110;-82
2023/03/09 07:00:39;;;;;;;;;2.50;2.00;;;;;;;;5065255;28;62112;-83
2023/03/09 07:03:04;;;;;;;;;4.25;1.00;;;;;;;;5082459;28;61820;-82
2023/03/09 07:05:30;;;;;;;;;3.25;1.00;;;;;;;;5074289;27;61874;-82
2023/03/09 07:07:55;;;;;;;;;3.50;3.00;;;;;;;;5080210;28;63023;-83
2023/03/09 07:10:20;;;;;;;;;3.00;1.00;;;;;;;;5056391;28;61712;-81
2023/03/09 07:12:47;;;;;;;;;3.75;1.00;;;;;;;;5073874;27;61948;-83
2023/03/09 07:15:12;;;;;;;;;2.75;2.00;;;;;;;;5070991;28;62021;-84
2023/03/09 07:17:37;;;;;;;;;3.75;1.00;;;;;;;;5064670;28;63826;-83
2023/03/09 07:20:03;;;;;;;;;4.00;3.00;;;;;;;;5065451;28;61879;-83
2023/03/09 07:22:28;;;;;;;;;2.75;1.00;;;;;;;;5065704;28;61940;-83
2023/03/09 07:24:53;;;;;;;;;3.25;1.00;;;;;;;;5075771;27;61845;-82
2023/03/09 07:27:20;;;;;;;;;2.00;2.00;;;;;;;;5064689;28;64677;-82
2023/03/09 07:29:47;;;;;;;;;4.50;2.00;;;;;;;;5083178;28;61810;-83
2023/03/09 07:32:13;;;;;;;;;2.00;2.00;;;;;;;;5066145;28;62154;-82
2023/03/09 07:34:39;;;;;;;;;2.25;1.00;;;;;;;;5087089;27;61707;-82
2023/03/09 07:37:04;;;;;;;;;2.75;2.00;;;;;;;;5064873;28;63828;-83
2023/03/09 07:39:30;;;;;;;;;9.75;2.50;;;;;;;;5066151;28;61882;-82
2023/03/09 07:41:55;;;;;;;;;3.25;1.25;;;;;;;;5065078;28;61923;-85
2023/03/09 07:44:20;;;;;;;;;5.50;2.25;;;;;;;;5065727;28;62188;-84
2023/03/09 07:46:46;;;;;;;;;2.50;1.00;;;;;;;;5082539;27;62319;-84
2023/03/09 07:49:11;;;;;;;;;3.00;2.50;;;;;;;;5064412;28;61859;-84
2023/03/09 07:51:37;;;;;;;;;8.50;2.00;;;;;;;;5065143;28;62002;-84
2023/03/09 07:54:04;;;;;;;;;4.00;2.00;;;;;;;;5064607;28;61773;-84
2023/03/09 07:56:29;;;;;;;;;12.75;3.00;;;;;;;;5063694;28;63753;-84
2023/03/09 07:58:55;;;;;;;;;9.50;2.00;;;;;;;;5082337;27;61819;-84
2023/03/09 08:01:20;;;;;;;;;2.00;2.00;;;;;;;;5082497;28;61871;-84
2023/03/09 08:03:46;;;;;;;;;1.75;1.75;;;;;;;;5065049;28;62053;-84
2023/03/09 08:06:11;;;;;;;;;4.25;1.75;;;;;;;;5064397;28;63515;-84
2023/03/09 08:08:37;;;;;;;;;7.25;2.75;;;;;;;;5064970;28;61855;-84
2023/03/09 08:11:05;;;;;;;;;4.50;1.50;;;;;;;;5083556;27;61944;-84
2023/03/09 08:13:31;;;;;;;;;3.00;1.00;;;;;;;;5082423;27;62099;-84
2023/03/09 08:15:59;;;;;;;;;2.25;2.25;;;;;;;;5064977;27;64922;-84
2023/03/09 08:18:24;;;;;;;;;1.25;1.25;;;;;;;;5082639;28;61923;-84
2023/03/09 08:20:49;;;;;;;;;6.50;5.50;;;;;;;;5064731;28;61697;-83
2023/03/09 08:23:15;;;;;;;;;3.00;2.00;;;;;;;;5064816;28;62074;-83
2023/03/09 08:25:40;;;;;;;;;1.00;1.00;;;;;;;;5064357;28;63911;-83
2023/03/09 08:28:05;;;;;;;;;4.25;0.50;;;;;;;;5064556;28;61965;-84
2023/03/09 08:30:31;;;;;;;;;2.25;1.50;;;;;;;;5082734;28;61663;-84
2023/03/09 08:32:57;;;;;;;;;1.75;1.75;;;;;;;;5060771;28;61928;-84
2023/03/09 08:35:23;;;;;;;;;6.25;2.75;;;;;;;;5053480;28;64845;-83
2023/03/09 08:37:48;;;;;;;;;8.75;2.25;;;;;;;;5022709;28;62095;-83
2023/03/09 08:40:14;;;;;;;;;3.50;1.50;;;;;;;;5036224;28;61809;-83
2023/03/09 08:42:39;;;;;;;;;4.50;1.75;;;;;;;;5042560;28;61699;-83
2023/03/09 08:45:05;;;;;;;;;1.00;1.00;;;;;;;;5041550;28;61779;-82
2023/03/09 08:47:30;;;;;;;;;4.00;1.50;;;;;;;;5040437;28;61890;-83
2023/03/09 08:49:56;;;;;;;;;3.00;2.00;;;;;;;;5041396;28;61925;-82
2023/03/09 08:52:21;;;;;;;;;4.00;2.00;;;;;;;;5045676;28;62004;-82
2023/03/09 08:54:47;;;;;;;;;3.75;1.50;;;;;;;;5038025;28;63758;-82
2023/03/09 08:57:12;;;;;;;;;7.50;3.00;;;;;;;;5039351;28;62110;-82
2023/03/09 08:59:41;;;;;;;;;4.50;3.00;;;;;;;;5038057;28;62092;-82
2023/03/09 09:02:13;;;;;;;;;7.00;2.75;;;;;;;;5038465;28;62198;-82
2023/03/09 09:04:39;;;;;;;;;4.00;1.00;;;;;;;;5039626;28;63720;-82
2023/03/09 09:07:04;;;;;;;;;3.00;2.00;;;;;;;;5040696;28;61985;-82
2023/03/09 09:09:29;;;;;;;;;2.75;2.00;;;;;;;;5040323;28;61885;-82
2023/03/09 09:11:55;;;;;;;;;10.50;1.75;;;;;;;;5042367;28;61806;-83
2023/03/09 09:14:20;;;;;;;;;3.00;3.00;;;;;;;;5041478;28;62719;-82
2023/03/09 09:16:45;;;;;;;;;3.25;1.00;;;;;;;;5041551;28;61840;-82
2023/03/09 09:19:11;;;;;;;;;7.00;3.25;;;;;;;;5041861;28;61801;-82
2023/03/09 09:21:37;;;;;;;;;6.50;2.75;;;;;;;;5040692;28;61958;-82
2023/03/09 09:24:03;;;;;;;;;10.25;1.75;;;;;;;;5041400;28;61975;-82
2023/03/09 09:26:29;;;;;;;;;4.75;3.00;;;;;;;;5044913;28;61772;-82
2023/03/09 09:28:55;;;;;;;;;4.50;1.75;;;;;;;;5045042;28;61720;-82
2023/03/09 09:31:20;;;;;;;;;10.00;1.50;;;;;;;;5044336;28;61845;-82
2023/03/09 09:33:45;;;;;;;;;5.25;1.50;;;;;;;;5061952;28;63634;-81
2023/03/09 09:36:12;;;;;;;;;7.25;2.50;;;;;;;;5064393;28;61682;-81
2023/03/09 09:38:38;;;;;;;;;4.25;3.00;;;;;;;;5064435;28;61944;-81
2023/03/09 09:41:10;;;;;;;;;5.25;3.00;;;;;;;;5045223;28;61819;-81
2023/03/09 09:43:36;;;;;;;;;6.00;2.00;;;;;;;;5042978;28;65134;-82
2023/03/09 09:46:02;;;;;;;;;5.00;3.00;;;;;;;;5045228;28;61676;-83
2023/03/09 09:48:34;;;;;;;;;0.00;0.00;;;;;;;;5045111;28;61947;-82
2023/03/09 09:51:10;;;;;;;;;8.00;5.00;;;;;;;;5044029;28;61949;-81
2023/03/09 09:53:36;;;;;;;;;12.00;5.00;;;;;;;;5042874;28;64950;-81
2023/03/09 09:56:01;;;;;;;;;6.00;4.00;;;;;;;;5043612;28;62411;-82
2023/03/09 09:58:27;;;;;;;;;6.00;4.00;;;;;;;;5043338;28;62029;-81
2023/03/09 10:00:54;;;;;;;;;9.25;5.25;;;;;;;;5043350;28;61759;-82
2023/03/09 10:03:25;;;;;;;;;9.75;6.25;;;;;;;;5042344;28;63882;-81
2023/03/09 10:06:01;;;;;;;;;1.50;1.50;;;;;;;;5044639;28;61753;-83
2023/03/09 10:08:45;;;;;;;;;3.75;3.00;;;;;;;;5043460;28;61998;-82
2023/03/09 10:11:11;;;;;;;;;3.75;3.75;;;;;;;;5044776;28;61945;-82
2023/03/09 10:13:41;;;;;;;;;9.75;4.25;;;;;;;;5042493;28;63641;-82
2023/03/09 10:16:10;;;;;;;;;4.25;3.50;;;;;;;;5043330;28;61818;-82
2023/03/09 10:18:42;;;;;;;;;10.75;5.25;;;;;;;;5044017;28;61808;-83
2023/03/09 10:21:20;;;;;;;;;8.25;4.50;;;;;;;;5043479;28;61748;-82
2023/03/09 10:23:46;;;;;;;;;7.25;3.00;;;;;;;;5043810;28;62043;-82
2023/03/09 10:26:11;;;;;;;;;2.50;1.25;;;;;;;;5043078;28;61839;-83
2023/03/09 10:28:41;;;;;;;;;8.25;3.25;;;;;;;;5044215;28;62213;-82
2023/03/09 10:31:25;;;;;;;;;4.50;4.50;;;;;;;;5043511;28;61762;-82
2023/03/09 10:33:56;;;;;;;;;8.00;4.50;;;;;;;;5083435;27;62121;-82
2023/03/09 10:36:29;;;;;;;;;5.50;1.50;;;;;;;;5065927;28;61875;-82
2023/03/09 10:38:55;;;;;;;;;5.00;2.50;;;;;;;;5084230;27;62119;-83
2023/03/09 10:41:21;;;;;;;;;3.00;3.00;;;;;;;;5084688;27;61902;-83
2023/03/09 10:43:46;;;;;;;;;4.00;3.75;;;;;;;;5084095;27;62096;-83
2023/03/09 10:46:16;;;;;;;;;1.25;1.25;;;;;;;;5084662;27;62076;-82
2023/03/09 10:48:43;;;;;;;;;2.25;2.00;;;;;;;;5065949;28;62191;-83
2023/03/09 10:51:25;;;;;;;;;4.25;3.50;;;;;;;;5066579;28;61880;-82
2023/03/09 10:53:52;;;;;;;;;10.25;2.00;;;;;;;;5084062;28;63114;-83
2023/03/09 10:56:28;;;;;;;;;4.00;3.00;;;;;;;;5066129;28;62007;-83
2023/03/09 10:59:08;;;;;;;;;5.25;3.00;;;;;;;;5083839;27;61824;-83
2023/03/09 11:01:37;;;;;;;;;8.50;3.00;;;;;;;;5066108;28;61838;-83
2023/03/09 11:04:26;;;;;;;;;4.25;3.00;;;;;;;;5083072;27;61958;-83
2023/03/09 11:07:01;;;;;;;;;3.75;1.00;;;;;;;;5053467;27;61969;-83
2023/03/09 11:09:26;;;;;;;;;3.75;2.25;;;;;;;;5084493;27;61703;-83
2023/03/09 11:11:52;;;;;;;;;9.00;3.00;;;;;;;;5084372;28;61726;-82
2023/03/09 11:14:20;;;;;;;;;5.75;2.00;;;;;;;;5065403;27;63966;-83
2023/03/09 11:17:01;;;;;;;;;3.25;2.25;;;;;;;;5084175;27;61862;-83
2023/03/09 11:19:28;;;;;;;;;5.50;2.00;;;;;;;;5065262;28;62141;-83
2023/03/09 11:21:56;;;;;;;;;6.50;2.00;;;;;;;;5065911;28;62296;-83
2023/03/09 11:24:36;;;;;;;;;2.00;2.00;;;;;;;;5083173;27;61871;-83
2023/03/09 11:27:04;;;;;;;;;3.75;2.75;;;;;;;;5065037;27;62152;-83
2023/03/09 11:29:36;;;;;;;;;3.00;2.25;;;;;;;;5064789;27;61846;-83
2023/03/09 11:32:01;;;;;;;;;8.75;2.50;;;;;;;;5065364;28;61751;-84
2023/03/09 11:34:26;;;;;;;;;4.75;2.00;;;;;;;;5083240;28;62088;-84
2023/03/09 11:36:57;;;;;;;;;2.50;2.50;;;;;;;;5065492;28;61917;-84
2023/03/09 11:39:26;;;;;;;;;4.75;3.00;;;;;;;;5066855;27;61845;-84
2023/03/09 11:41:53;;;;;;;;;1.75;1.75;;;;;;;;5084215;28;62596;-83
2023/03/09 11:44:24;;;;;;;;;4.25;3.00;;;;;;;;5083576;28;62837;-84
2023/03/09 11:46:51;;;;;;;;;5.25;5.00;;;;;;;;5065433;27;61734;-84
2023/03/09 11:49:20;;;;;;;;;9.75;3.25;;;;;;;;5083789;28;62494;-83
2023/03/09 11:51:48;;;;;;;;;5.50;2.00;;;;;;;;5084721;27;61922;-83
2023/03/09 11:54:26;;;;;;;;;3.50;2.25;;;;;;;;5064721;27;63782;-83
2023/03/09 11:56:52;;;;;;;;;2.00;2.00;;;;;;;;5065262;28;61714;-84
2023/03/09 11:59:20;;;;;;;;;5.25;1.25;;;;;;;;5064830;28;61818;-84
2023/03/09 12:01:49;;;;;;;;;5.25;2.00;;;;;;;;5065621;28;61849;-84
2023/03/09 12:04:15;;;;;;;;;3.75;3.75;;;;;;;;5082129;27;61833;-83
2023/03/09 12:06:52;;;;;;;;;4.25;3.00;;;;;;;;5083438;27;61689;-83
2023/03/09 12:09:31;;;;;;;;;4.50;1.50;;;;;;;;5082883;28;61827;-83
2023/03/09 12:12:06;;;;;;;;;5.50;2.00;;;;;;;;5083561;27;62213;-84
2023/03/09 12:14:35;;;;;;;;;6.75;1.00;;;;;;;;5064600;28;63862;-85
2023/03/09 12:17:03;;;;;;;;;7.00;3.00;;;;;;;;5064623;28;61801;-85
2023/03/09 12:19:30;;;;;;;;;7.25;4.00;;;;;;;;5064606;28;61898;-84
2023/03/09 12:22:02;;;;;;;;;5.25;4.00;;;;;;;;5064582;28;61932;-84
2023/03/09 12:24:33;;;;;;;;;5.00;2.25;;;;;;;;5064039;28;64053;-85
2023/03/09 12:27:01;;;;;;;;;4.50;2.50;;;;;;;;5083031;27;61726;-85
2023/03/09 12:29:30;;;;;;;;;5.25;2.25;;;;;;;;5064566;28;61727;-85
2023/03/09 12:32:17;;;;;;;;;3.50;2.00;;;;;;;;5083077;27;61457;-84
2023/03/09 12:34:43;;;;;;;;;3.75;1.75;;;;;;;;5081978;27;61983;-84
2023/03/09 12:37:29;;;;;;;;;4.75;1.00;;;;;;;;5064136;28;61833;-85
2023/03/09 12:40:17;;;;;;;;;3.25;2.50;;;;;;;;5065898;27;61789;-85
2023/03/09 12:42:46;;;;;;;;;4.00;3.00;;;;;;;;5065109;28;62265;-84
2023/03/09 12:45:11;;;;;;;;;4.25;2.25;;;;;;;;5064089;28;65219;-83
2023/03/09 12:47:45;;;;;;;;;4.25;2.25;;;;;;;;5064367;28;61861;-84
2023/03/09 12:50:19;;;;;;;;;6.25;2.50;;;;;;;;5064001;28;62224;-83
2023/03/09 12:53:03;;;;;;;;;3.00;3.00;;;;;;;;5082670;28;61733;-83
2023/03/09 12:55:34;;;;;;;;;4.00;2.50;;;;;;;;5063684;28;64007;-84
2023/03/09 12:58:18;;;;;;;;;7.25;4.50;;;;;;;;5063942;27;62160;-84
2023/03/09 13:00:51;;;;;;;;;8.50;3.25;;;;;;;;5063798;28;61856;-85
2023/03/09 13:03:18;;;;;;;;;4.00;3.00;;;;;;;;5063885;28;61751;-85
2023/03/09 13:05:51;;;;;;;;;5.25;2.00;;;;;;;;5063502;28;64913;-85
2023/03/09 13:08:19;;;;;;;;;2.00;2.00;;;;;;;;5063845;28;61940;-83
2023/03/09 13:10:45;;;;;;;;;4.50;2.00;;;;;;;;5064202;28;61921;-83
2023/03/09 13:13:28;;;;;;;;;4.25;3.50;;;;;;;;5064106;28;62008;-84
2023/03/09 13:16:12;;;;;;;;;1.75;1.75;;;;;;;;5081924;27;62980;-83
2023/03/09 13:18:38;;;;;;;;;2.00;2.00;;;;;;;;5063498;28;61889;-84
2023/03/09 13:21:23;;;;;;;;;2.75;1.25;;;;;;;;5082278;27;61697;-83
2023/03/09 13:23:49;;;;;;;;;3.00;1.75;;;;;;;;4982896;28;62097;-84
2023/03/09 13:26:14;;;;;;;;;3.25;1.50;;;;;;;;4982329;28;63843;-85
2023/03/09 13:28:46;;;;;;;;;4.75;1.25;;;;;;;;4982575;28;62293;-86
2023/03/09 13:31:21;;;;;;;;;5.50;2.50;;;;;;;;4983101;28;62026;-85
2023/03/09 13:33:47;;;;;;;;;3.75;1.00;;;;;;;;4982600;28;62086;-84
2023/03/09 13:36:14;;;;;;;;;2.50;2.00;;;;;;;;4998730;28;61920;-84
2023/03/09 13:38:43;;;;;;;;;3.50;2.50;;;;;;;;4982758;28;62040;-86
2023/03/09 13:41:16;;;;;;;;;3.25;1.00;;;;;;;;4983107;28;62002;-84
2023/03/09 13:43:46;;;;;;;;;2.00;1.00;;;;;;;;4999355;28;61814;-85
2023/03/09 13:46:37;;;;;;;;;2.25;1.00;;;;;;;;4982330;28;63750;-84
2023/03/09 13:49:07;;;;;;;;;2.75;2.00;;;;;;;;4980653;28;61870;-85
2023/03/09 13:51:37;;;;;;;;;3.50;2.50;;;;;;;;4982585;28;61955;-84
2023/03/09 13:54:02;;;;;;;;;2.75;1.75;;;;;;;;4982810;28;62091;-84
2023/03/09 13:56:28;;;;;;;;;4.00;3.00;;;;;;;;4981899;28;65289;-83
2023/03/09 13:58:54;;;;;;;;;4.75;2.00;;;;;;;;4982412;28;61967;-84
2023/03/09 14:01:21;;;;;;;;;4.50;1.00;;;;;;;;5040241;28;61735;-83
2023/03/09 14:03:47;;;;;;;;;1.00;0.00;;;;;;;;5059874;28;61806;-83
2023/03/09 14:06:13;;;;;;;;;1.00;1.00;;;;;;;;5042913;28;63862;-83
2023/03/09 14:08:43;;;;;;;;;6.75;2.25;;;;;;;;5061036;28;61820;-83
2023/03/09 14:11:15;;;;;;;;;3.25;1.00;;;;;;;;5061770;28;61936;-83
2023/03/09 14:13:46;;;;;;;;;1.75;0.00;;;;;;;;5064622;28;61828;-85
2023/03/09 14:16:14;;;;;;;;;3.00;2.00;;;;;;;;5064481;28;61877;-86
2023/03/09 14:18:39;;;;;;;;;1.50;0.50;;;;;;;;5064095;28;61895;-85
2023/03/09 14:21:16;;;;;;;;;2.00;0.00;;;;;;;;5046732;28;61862;-83
2023/03/09 14:23:42;;;;;;;;;1.25;0.25;;;;;;;;5064940;28;61762;-83
2023/03/09 14:26:08;;;;;;;;;3.75;2.00;;;;;;;;5064281;28;63006;-84
2023/03/09 14:28:41;;;;;;;;;1.50;0.75;;;;;;;;5045894;28;61768;-83
2023/03/09 14:31:07;;;;;;;;;0.75;0.00;;;;;;;;5046713;28;61931;-83
2023/03/09 14:33:33;;;;;;;;;5.75;2.75;;;;;;;;5045591;28;62242;-82
2023/03/09 14:36:05;;;;;;;;;3.00;2.00;;;;;;;;5061647;28;63627;-82
2023/03/09 14:38:30;;;;;;;;;2.25;0.00;;;;;;;;5083338;27;62033;-84
2023/03/09 14:41:00;;;;;;;;;2.00;1.00;;;;;;;;5065103;28;62070;-84
2023/03/09 14:43:25;;;;;;;;;2.00;1.75;;;;;;;;5080965;28;61796;-83
2023/03/09 14:45:50;;;;;;;;;2.00;0.75;;;;;;;;5083082;27;61707;-84